createdAt,value
2022-12-17T00:00:28.108Z,78.02
2022-12-17T00:03:16.181Z,77.89
2022-12-17T00:05:45.546Z,78.46
2022-12-17T00:08:13.263Z,77.91
2022-12-17T00:10:44.129Z,77.92
2022-12-17T00:13:18.474Z,78.74
2022-12-17T00:15:51.667Z,78.29
2022-12-17T00:18:20.091Z,77.93
2022-12-17T00:20:53.815Z,79.11
2022-12-17T00:23:29.978Z,78.04
2022-12-17T00:25:57.659Z,78.26
2022-12-17T00:28:25.590Z,78.12
2022-12-17T00:30:53.033Z,78.76
2022-12-17T00:33:20.807Z,78.70
2022-12-17T00:35:53.370Z,78.70
2022-12-17T00:38:21.334Z,78.38
2022-12-17T00:40:51.575Z,78.48
2022-12-17T00:43:19.894Z,78.13
2022-12-17T00:45:47.651Z,78.38
2022-12-17T00:48:15.574Z,78.05
2022-12-17T00:50:43.004Z,78.25
2022-12-17T00:53:12.140Z,78.34
2022-12-17T00:55:40.132Z,78.02
2022-12-17T00:58:07.975Z,77.67
2022-12-17T01:00:35.511Z,77.23
2022-12-17T01:03:07.911Z,78.56
2022-12-17T01:05:35.359Z,78.10
2022-12-17T01:08:07.821Z,78.09
2022-12-17T01:10:37.407Z,77.63
2022-12-17T01:13:05.167Z,77.98
2022-12-17T01:15:32.705Z,78.18
2022-12-17T01:18:00.694Z,78.31
2022-12-17T01:20:28.130Z,78.10
2022-12-17T01:22:56.502Z,78.45
2022-12-17T01:25:24.037Z,77.59
2022-12-17T01:27:53.408Z,78.10
2022-12-17T01:30:23.727Z,77.28
2022-12-17T01:32:51.754Z,77.70
2022-12-17T01:35:19.270Z,77.29
2022-12-17T01:37:47.101Z,77.34
2022-12-17T01:40:14.654Z,78.09
2022-12-17T01:42:44.053Z,78.36
2022-12-17T01:45:14.476Z,77.67
2022-12-17T01:47:47.438Z,78.33
2022-12-17T01:50:16.698Z,78.86
2022-12-17T01:52:44.539Z,78.70
2022-12-17T01:55:11.927Z,78.18
2022-12-17T01:57:39.942Z,78.09
2022-12-17T02:00:08.760Z,78.45
2022-12-17T02:02:38.385Z,79.52
2022-12-17T02:05:06.203Z,79.29
2022-12-17T02:07:46.297Z,78.89
2022-12-17T02:10:23.176Z,78.52
2022-12-17T02:12:53.253Z,77.97
2022-12-17T02:15:27.755Z,78.23
2022-12-17T02:18:00.656Z,78.47
2022-12-17T02:20:33.425Z,78.20
2022-12-17T02:23:11.018Z,78.30
2022-12-17T02:25:48.446Z,77.86
2022-12-17T02:28:18.965Z,78.25
2022-12-17T02:30:46.849Z,79.38
2022-12-17T02:33:15.716Z,79.09
2022-12-17T02:35:46.625Z,80.11
2022-12-17T02:38:19.231Z,79.58
2022-12-17T02:40:48.707Z,78.81
2022-12-17T02:43:19.434Z,79.17
2022-12-17T02:45:47.148Z,78.88
2022-12-17T02:48:16.012Z,78.96
2022-12-17T02:50:43.503Z,78.76
2022-12-17T02:53:11.647Z,79.00
2022-12-17T02:55:39.000Z,78.21
2022-12-17T02:58:06.794Z,79.38
2022-12-17T03:00:35.713Z,78.98
2022-12-17T03:03:03.936Z,78.38
2022-12-17T03:05:47.026Z,78.79
2022-12-17T03:08:15.256Z,78.80
2022-12-17T03:10:42.625Z,78.68
2022-12-17T03:13:10.468Z,79.44
2022-12-17T03:15:39.406Z,78.93
2022-12-17T03:18:07.251Z,78.68
2022-12-17T03:20:34.682Z,80.04
2022-12-17T03:23:03.910Z,79.73
2022-12-17T03:25:31.413Z,79.83
2022-12-17T03:28:04.380Z,79.84
2022-12-17T03:30:35.835Z,79.66
2022-12-17T03:33:09.732Z,79.12
2022-12-17T03:35:37.225Z,79.15
2022-12-17T03:38:08.050Z,78.64
2022-12-17T03:40:35.513Z,78.87
2022-12-17T03:43:06.686Z,78.93
2022-12-17T03:45:34.081Z,78.34
2022-12-17T03:48:08.838Z,78.92
2022-12-17T03:50:36.635Z,78.61
2022-12-17T03:53:05.118Z,78.73
2022-12-17T03:55:32.844Z,78.83
2022-12-17T03:58:00.535Z,79.44
2022-12-17T04:00:27.919Z,79.31
2022-12-17T04:02:55.844Z,79.22
2022-12-17T04:05:25.179Z,78.73
2022-12-17T04:07:53.061Z,78.26
2022-12-17T04:10:20.551Z,78.84
2022-12-17T04:12:49.407Z,79.31
2022-12-17T04:15:16.866Z,78.73
2022-12-17T04:17:44.644Z,78.40
2022-12-17T04:20:12.742Z,79.09
2022-12-17T04:22:42.127Z,79.16
2022-12-17T04:25:09.742Z,79.20
2022-12-17T04:27:37.589Z,79.31
2022-12-17T04:30:05.651Z,78.92
2022-12-17T04:32:35.381Z,79.12
2022-12-17T04:35:03.552Z,78.98
2022-12-17T04:37:31.381Z,78.48
2022-12-17T04:40:00.051Z,77.79
2022-12-17T04:42:27.886Z,78.95
2022-12-17T04:44:55.436Z,78.17
2022-12-17T04:47:23.345Z,77.77
2022-12-17T04:49:50.865Z,77.88
2022-12-17T04:52:19.173Z,78.03
2022-12-17T04:54:46.867Z,77.34
2022-12-17T04:57:16.447Z,77.66
2022-12-17T04:59:43.739Z,77.71
2022-12-17T05:02:11.650Z,78.05
2022-12-17T05:04:39.384Z,77.66
2022-12-17T05:07:07.428Z,77.92
2022-12-17T05:09:34.724Z,78.17
2022-12-17T05:12:02.743Z,78.19
2022-12-17T05:14:31.797Z,78.33
2022-12-17T05:16:59.756Z,77.62
2022-12-17T05:19:29.893Z,78.30
2022-12-17T05:21:57.727Z,78.04
2022-12-17T05:24:25.342Z,78.45
2022-12-17T05:26:53.339Z,77.98
2022-12-17T05:29:21.732Z,78.67
2022-12-17T05:31:51.502Z,78.35
2022-12-17T05:34:18.863Z,78.95
2022-12-17T05:36:47.007Z,79.27
2022-12-17T05:39:14.536Z,79.36
2022-12-17T05:41:42.604Z,79.72
2022-12-17T05:44:09.993Z,79.37
2022-12-17T05:46:38.038Z,78.76
2022-12-17T05:49:06.819Z,78.45
2022-12-17T05:51:38.645Z,79.35
2022-12-17T05:54:07.418Z,79.68
2022-12-17T05:56:35.228Z,79.74
2022-12-17T05:59:02.468Z,79.04
2022-12-17T06:01:30.274Z,79.54
2022-12-17T06:03:57.919Z,79.56
2022-12-17T06:06:27.658Z,80.40
2022-12-17T06:08:55.344Z,80.11
2022-12-17T06:11:23.281Z,79.41
2022-12-17T06:13:50.762Z,80.14
2022-12-17T06:16:18.653Z,79.34
2022-12-17T06:18:46.214Z,79.12
2022-12-17T06:21:14.243Z,79.33
2022-12-17T06:23:42.938Z,79.32
2022-12-17T06:26:11.408Z,79.23
2022-12-17T06:28:38.995Z,79.02
2022-12-17T06:31:06.850Z,79.41
2022-12-17T06:33:34.530Z,79.10
2022-12-17T06:36:02.655Z,79.89
2022-12-17T06:38:30.351Z,79.73
2022-12-17T06:41:02.512Z,79.64
2022-12-17T06:43:30.055Z,78.94
2022-12-17T06:46:04.051Z,80.20
2022-12-17T06:48:31.719Z,79.57
2022-12-17T06:50:59.965Z,78.82
2022-12-17T06:53:27.321Z,79.08
2022-12-17T06:55:57.634Z,79.28
2022-12-17T06:58:26.338Z,80.25
2022-12-17T07:00:54.621Z,80.30
2022-12-17T07:03:22.361Z,80.12
2022-12-17T07:05:50.816Z,79.73
2022-12-17T07:08:18.202Z,79.36
2022-12-17T07:10:46.150Z,79.73
2022-12-17T07:13:13.564Z,80.31
2022-12-17T07:15:46.049Z,80.34
2022-12-17T07:18:13.476Z,80.03
2022-12-17T07:20:41.818Z,80.30
2022-12-17T07:23:09.732Z,79.84
2022-12-17T07:25:41.554Z,78.84
2022-12-17T07:28:11.691Z,79.53
2022-12-17T07:30:39.580Z,79.76
2022-12-17T07:33:10.222Z,80.07
2022-12-17T07:35:39.945Z,79.85
2022-12-17T07:38:09.146Z,79.56
2022-12-17T07:40:37.391Z,80.28
2022-12-17T07:43:10.508Z,80.17
2022-12-17T07:45:38.483Z,79.50
2022-12-17T07:48:06.290Z,79.68
2022-12-17T07:50:35.561Z,78.75
2022-12-17T07:53:04.053Z,78.87
2022-12-17T07:55:31.921Z,79.43
2022-12-17T07:58:04.374Z,79.29
2022-12-17T08:00:32.388Z,78.46
2022-12-17T08:03:01.153Z,79.00
2022-12-17T08:05:29.416Z,78.62
2022-12-17T08:07:58.684Z,78.63
2022-12-17T08:10:26.661Z,79.01
2022-12-17T08:12:54.932Z,78.57
2022-12-17T08:15:23.207Z,76.95
2022-12-17T08:17:50.807Z,77.43
2022-12-17T08:20:18.707Z,78.01
2022-12-17T08:22:46.449Z,77.37
2022-12-17T08:25:15.698Z,76.83
2022-12-17T08:27:43.006Z,76.46
2022-12-17T08:30:12.026Z,76.80
2022-12-17T08:32:39.663Z,77.05
2022-12-17T08:35:07.977Z,77.48
2022-12-17T08:37:35.325Z,77.62
2022-12-17T08:40:03.290Z,77.21
2022-12-17T08:42:32.274Z,76.95
2022-12-17T08:45:00.290Z,77.70
2022-12-17T08:47:27.641Z,77.62
2022-12-17T08:49:56.004Z,77.08
2022-12-17T08:52:23.815Z,77.12
2022-12-17T08:54:51.605Z,77.67
2022-12-17T08:57:30.641Z,77.22
2022-12-17T09:00:01.104Z,76.78
2022-12-17T09:02:28.750Z,77.47
2022-12-17T09:04:57.093Z,76.85
2022-12-17T09:07:24.458Z,76.03
2022-12-17T09:09:52.189Z,75.90
2022-12-17T09:12:19.610Z,75.99
2022-12-17T09:14:47.661Z,75.89
2022-12-17T09:17:16.618Z,76.41
2022-12-17T09:19:44.795Z,78.12
2022-12-17T09:22:12.611Z,76.88
2022-12-17T09:24:40.417Z,77.89
2022-12-17T09:27:10.516Z,76.65
2022-12-17T09:29:38.294Z,76.57
2022-12-17T09:32:05.772Z,76.60
2022-12-17T09:34:35.104Z,77.38
2022-12-17T09:37:03.225Z,77.47
2022-12-17T09:39:31.005Z,77.88
2022-12-17T09:42:06.628Z,78.39
2022-12-17T09:44:42.532Z,78.22
2022-12-17T09:47:23.030Z,78.51
2022-12-17T09:49:52.950Z,77.89
2022-12-17T09:52:24.304Z,78.35
2022-12-17T09:54:56.302Z,77.72
2022-12-17T09:57:30.472Z,77.65
2022-12-17T09:59:58.525Z,78.51
2022-12-17T10:02:28.865Z,78.26
2022-12-17T10:05:00.884Z,78.32
2022-12-17T10:07:33.428Z,77.45
2022-12-17T10:10:11.073Z,78.08
2022-12-17T10:12:38.979Z,78.30
2022-12-17T10:15:14.400Z,77.93
2022-12-17T10:17:42.001Z,77.59
2022-12-17T10:20:18.512Z,78.72
2022-12-17T10:22:48.251Z,78.54
2022-12-17T10:25:17.380Z,78.78
2022-12-17T10:27:44.875Z,79.31
2022-12-17T10:30:16.398Z,78.60
2022-12-17T10:32:43.888Z,78.79
2022-12-17T10:35:19.259Z,77.85
2022-12-17T10:37:46.852Z,77.37
2022-12-17T10:40:23.484Z,78.87
2022-12-17T10:42:51.226Z,77.91
2022-12-17T10:45:25.188Z,77.95
2022-12-17T10:47:52.549Z,77.76
2022-12-17T10:50:23.268Z,78.22
2022-12-17T10:52:51.830Z,77.90
2022-12-17T10:55:23.679Z,78.59
2022-12-17T10:57:52.716Z,78.17
2022-12-17T11:00:25.892Z,77.80
2022-12-17T11:02:53.462Z,77.77
2022-12-17T11:05:27.819Z,76.88
2022-12-17T11:07:55.544Z,77.23
2022-12-17T11:10:25.951Z,76.95
2022-12-17T11:12:57.663Z,76.88
2022-12-17T11:15:31.511Z,76.19
2022-12-17T11:18:01.059Z,76.43
2022-12-17T11:20:44.693Z,76.37
2022-12-17T11:23:18.703Z,77.25
2022-12-17T11:25:56.356Z,77.86
2022-12-17T11:28:25.524Z,77.35
2022-12-17T11:31:02.200Z,76.26
2022-12-17T11:33:35.780Z,77.39
2022-12-17T11:36:13.834Z,77.63
2022-12-17T11:38:49.348Z,78.13
2022-12-17T11:41:27.479Z,77.74
2022-12-17T11:44:03.211Z,78.11
2022-12-17T11:46:43.883Z,77.16
2022-12-17T11:49:23.021Z,77.22
2022-12-17T11:51:59.989Z,77.37
2022-12-17T11:54:36.097Z,77.32
2022-12-17T11:57:15.088Z,77.72
2022-12-17T11:59:53.970Z,78.21
2022-12-17T12:02:52.203Z,78.89
2022-12-17T12:05:32.020Z,78.75
2022-12-17T12:08:10.318Z,78.44
2022-12-17T12:10:47.185Z,78.60
2022-12-17T12:13:22.875Z,78.37
2022-12-17T12:16:05.238Z,78.63
2022-12-17T12:18:42.852Z,77.64
2022-12-17T12:21:33.841Z,77.60
2022-12-17T12:24:18.104Z,77.92
2022-12-17T12:26:54.163Z,77.54
2022-12-17T12:29:30.286Z,77.63
2022-12-17T12:32:04.776Z,76.34
2022-12-17T12:34:36.830Z,76.83
2022-12-17T12:37:06.444Z,75.95
2022-12-17T12:39:40.161Z,75.68
2022-12-17T12:42:17.610Z,76.36
2022-12-17T12:44:52.063Z,76.35
2022-12-17T12:47:25.520Z,76.76
2022-12-17T12:50:00.309Z,75.84
2022-12-17T12:52:29.318Z,75.23
2022-12-17T12:54:58.635Z,76.35
2022-12-17T12:57:34.064Z,76.21
2022-12-17T13:00:02.033Z,75.52
2022-12-17T13:02:31.782Z,75.58
2022-12-17T13:05:01.005Z,75.66
2022-12-17T13:07:30.233Z,76.68
2022-12-17T13:10:00.381Z,76.14
2022-12-17T13:12:33.233Z,76.60
2022-12-17T13:15:18.472Z,75.81
2022-12-17T13:17:57.853Z,76.26
2022-12-17T13:20:30.781Z,75.40
2022-12-17T13:23:26.129Z,75.77
2022-12-17T13:26:29.711Z,75.95
2022-12-17T13:29:19.808Z,75.75
2022-12-17T13:32:16.217Z,75.85
2022-12-17T13:34:55.654Z,75.85
2022-12-17T13:37:37.165Z,76.33
2022-12-17T13:40:20.279Z,77.36
2022-12-17T13:42:48.902Z,77.44
2022-12-17T13:45:22.454Z,77.57
2022-12-17T13:47:54.154Z,77.46
2022-12-17T13:50:34.009Z,76.95
2022-12-17T13:53:09.459Z,76.65
2022-12-17T13:55:38.089Z,75.83
2022-12-17T13:58:05.969Z,76.37
2022-12-17T14:00:34.999Z,75.72
2022-12-17T14:03:10.451Z,76.93
2022-12-17T14:05:43.959Z,76.34
2022-12-17T14:08:16.715Z,75.68
2022-12-17T14:10:50.615Z,76.59
2022-12-17T14:13:19.324Z,77.03
2022-12-17T14:15:50.166Z,76.37
2022-12-17T14:18:20.464Z,75.68
2022-12-17T14:20:49.999Z,76.08
2022-12-17T14:23:24.145Z,76.78
2022-12-17T14:25:51.607Z,76.77
2022-12-17T14:28:24.879Z,76.48
2022-12-17T14:31:29.275Z,75.81
2022-12-17T14:34:02.314Z,76.30
2022-12-17T14:36:30.988Z,76.60
2022-12-17T14:39:00.965Z,77.46
2022-12-17T14:41:35.997Z,77.27
2022-12-17T14:44:04.757Z,77.74
2022-12-17T14:46:34.963Z,77.43
2022-12-17T14:49:12.604Z,76.90
2022-12-17T14:51:42.014Z,76.35
2022-12-17T14:54:27.340Z,76.58
2022-12-17T14:56:56.743Z,77.09
2022-12-17T14:59:32.306Z,76.68
2022-12-17T15:02:05.289Z,76.01
2022-12-17T15:04:33.929Z,76.18
2022-12-17T15:07:01.528Z,76.57
2022-12-17T15:09:29.459Z,77.19
2022-12-17T15:11:57.190Z,76.41
2022-12-17T15:14:25.411Z,77.16
2022-12-17T15:16:53.126Z,77.35
2022-12-17T15:19:22.838Z,76.59
2022-12-17T15:21:51.409Z,77.17
2022-12-17T15:24:21.241Z,76.80
2022-12-17T15:26:49.436Z,76.79
2022-12-17T15:29:17.304Z,76.65
2022-12-17T15:31:44.949Z,77.00
2022-12-17T15:34:13.085Z,76.29
2022-12-17T15:36:42.152Z,75.85
2022-12-17T15:39:11.246Z,76.47
2022-12-17T15:41:38.741Z,76.09
2022-12-17T15:44:07.271Z,75.57
2022-12-17T15:46:35.002Z,75.68
2022-12-17T15:49:03.014Z,75.26
2022-12-17T15:51:30.922Z,75.34
2022-12-17T15:54:00.283Z,76.05
2022-12-17T15:56:28.774Z,75.53
2022-12-17T15:58:57.361Z,76.17
2022-12-17T16:01:25.337Z,75.96
2022-12-17T16:03:53.724Z,76.18
2022-12-17T16:06:21.376Z,76.13
2022-12-17T16:08:49.414Z,75.22
2022-12-17T16:11:18.466Z,75.09
2022-12-17T16:13:46.945Z,75.42
2022-12-17T16:16:14.910Z,74.85
2022-12-17T16:18:43.323Z,75.37
2022-12-17T16:21:11.767Z,75.64
2022-12-17T16:23:40.342Z,75.80
2022-12-17T16:26:09.472Z,75.24
2022-12-17T16:28:39.540Z,75.19
2022-12-17T16:31:10.425Z,75.81
2022-12-17T16:33:40.556Z,76.47
2022-12-17T16:36:11.031Z,76.32
2022-12-17T16:38:43.913Z,76.96
2022-12-17T16:41:12.107Z,75.68
2022-12-17T16:43:41.648Z,75.58
2022-12-17T16:46:25.191Z,76.37
2022-12-17T16:48:54.141Z,75.40
2022-12-17T16:51:28.962Z,75.27
2022-12-17T16:53:59.183Z,75.89
2022-12-17T16:56:28.595Z,76.06
2022-12-17T16:58:58.766Z,75.78
2022-12-17T17:01:29.346Z,76.57
2022-12-17T17:03:58.294Z,76.00
2022-12-17T17:06:31.696Z,76.15
2022-12-17T17:09:04.035Z,76.06
2022-12-17T17:11:31.665Z,76.14
2022-12-17T17:14:01.393Z,76.22
2022-12-17T17:16:28.991Z,75.99
2022-12-17T17:18:57.436Z,76.41
2022-12-17T17:21:27.961Z,75.73
2022-12-17T17:23:57.666Z,76.18
2022-12-17T17:26:25.569Z,76.29
2022-12-17T17:28:54.058Z,76.28
2022-12-17T17:31:26.717Z,76.81
2022-12-17T17:33:58.543Z,76.82
2022-12-17T17:36:27.424Z,76.47
2022-12-17T17:38:57.163Z,77.13
2022-12-17T17:41:27.374Z,76.56
2022-12-17T17:43:59.919Z,76.21
2022-12-17T17:46:30.378Z,76.20
2022-12-17T17:49:01.029Z,75.67
2022-12-17T17:52:07.266Z,76.25
2022-12-17T17:54:18.767Z,76.13
2022-12-17T17:56:46.754Z,76.28
2022-12-17T17:59:16.939Z,76.76
2022-12-17T18:01:47.641Z,76.91
2022-12-17T18:04:17.600Z,77.22
2022-12-17T18:07:16.005Z,76.53
2022-12-17T18:09:34.511Z,76.83
2022-12-17T18:12:04.054Z,76.47
2022-12-17T18:14:37.471Z,75.87
2022-12-17T18:17:11.137Z,76.02
2022-12-17T18:19:39.081Z,75.06
2022-12-17T18:22:06.666Z,75.53
2022-12-17T18:24:34.941Z,75.67
2022-12-17T18:27:03.267Z,75.77
2022-12-17T18:29:32.185Z,75.85
2022-12-17T18:31:59.892Z,75.28
2022-12-17T18:34:29.275Z,75.77
2022-12-17T18:36:57.273Z,75.17
2022-12-17T18:39:27.205Z,75.72
2022-12-17T18:41:54.779Z,75.41
2022-12-17T18:44:23.654Z,75.33
2022-12-17T18:46:51.085Z,74.94
2022-12-17T18:49:20.678Z,75.24
2022-12-17T18:51:51.026Z,74.77
2022-12-17T18:54:20.938Z,74.61
2022-12-17T18:57:04.507Z,74.57
2022-12-17T18:59:32.272Z,74.97
2022-12-17T19:01:59.918Z,74.83
2022-12-17T19:04:28.218Z,74.98
2022-12-17T19:06:57.145Z,75.39
2022-12-17T19:09:27.791Z,74.48
2022-12-17T19:11:55.922Z,73.21
2022-12-17T19:14:25.872Z,74.02
2022-12-17T19:16:56.051Z,73.77
2022-12-17T19:19:25.579Z,72.90
2022-12-17T19:21:55.068Z,73.43
2022-12-17T19:24:25.602Z,72.53
2022-12-17T19:26:53.960Z,72.92
2022-12-17T19:29:22.617Z,73.35
2022-12-17T19:31:50.312Z,73.86
2022-12-17T19:34:20.033Z,72.89
2022-12-17T19:36:48.180Z,72.91
2022-12-17T19:39:17.906Z,72.42
2022-12-17T19:41:47.990Z,72.25
2022-12-17T19:44:17.510Z,72.33
2022-12-17T19:46:45.126Z,73.89
2022-12-17T19:49:14.187Z,72.69
2022-12-17T19:51:42.624Z,73.29
2022-12-17T19:54:12.228Z,72.12
2022-12-17T19:56:40.005Z,73.04
2022-12-17T19:59:11.033Z,72.94
2022-12-17T20:01:42.376Z,73.92
2022-12-17T20:04:12.841Z,72.88
2022-12-17T20:06:40.864Z,72.65
2022-12-17T20:09:09.207Z,73.18
2022-12-17T20:11:37.627Z,73.10
2022-12-17T20:14:08.231Z,73.37
2022-12-17T20:16:40.423Z,73.20
2022-12-17T20:19:10.655Z,74.22
2022-12-17T20:21:38.566Z,73.89
2022-12-17T20:24:07.248Z,74.10
2022-12-17T20:26:35.022Z,74.24
2022-12-17T20:29:03.309Z,73.87
2022-12-17T20:31:31.596Z,74.22
2022-12-17T20:34:01.918Z,73.82
2022-12-17T20:36:37.436Z,74.62
2022-12-17T20:39:06.817Z,74.92
2022-12-17T20:41:35.103Z,73.87
2022-12-17T20:44:04.511Z,73.79
2022-12-17T20:46:32.273Z,73.42
2022-12-17T20:49:01.893Z,73.58
2022-12-17T20:51:30.204Z,73.28
2022-12-17T20:54:00.660Z,73.18
2022-12-17T20:56:31.006Z,72.70
2022-12-17T20:59:01.605Z,73.09
2022-12-17T21:01:31.172Z,74.04
2022-12-17T21:04:02.226Z,73.17
2022-12-17T21:06:32.510Z,73.51
2022-12-17T21:09:00.410Z,73.70
2022-12-17T21:11:29.997Z,73.32
2022-12-17T21:13:58.156Z,73.22
2022-12-17T21:16:28.914Z,73.58
2022-12-17T21:18:58.420Z,73.26
2022-12-17T21:21:30.101Z,73.49
2022-12-17T21:23:59.037Z,73.23
2022-12-17T21:26:28.871Z,73.59
2022-12-17T21:29:00.706Z,73.80
2022-12-17T21:31:30.004Z,73.76
2022-12-17T21:34:00.949Z,73.58
2022-12-17T21:36:32.686Z,73.48
2022-12-17T21:39:01.354Z,73.71
2022-12-17T21:41:32.503Z,73.68
2022-12-17T21:44:02.525Z,73.93
2022-12-17T21:46:30.934Z,73.03
2022-12-17T21:49:00.984Z,73.42
2022-12-17T21:51:31.012Z,74.30
2022-12-17T21:54:02.682Z,73.42
2022-12-17T21:56:36.174Z,73.80
2022-12-17T21:59:04.587Z,73.39
2022-12-17T22:01:33.725Z,72.94
2022-12-17T22:04:04.645Z,73.37
2022-12-17T22:06:40.223Z,73.15
2022-12-17T22:09:29.943Z,74.08
2022-12-17T22:12:04.561Z,74.12
2022-12-17T22:14:32.763Z,74.90
2022-12-17T22:17:00.279Z,74.10
2022-12-17T22:19:28.339Z,74.39
2022-12-17T22:21:58.192Z,74.31
2022-12-17T22:24:26.651Z,74.03
2022-12-17T22:26:55.400Z,74.11
2022-12-17T22:29:23.863Z,74.26
2022-12-17T22:31:51.246Z,74.43
2022-12-17T22:35:27.093Z,75.28
2022-12-17T22:40:55.413Z,75.14
2022-12-17T22:43:58.056Z,74.88
2022-12-17T22:44:31.889Z,73.74
2022-12-17T22:45:32.922Z,73.77
2022-12-17T22:48:00.378Z,72.78
2022-12-17T22:50:28.783Z,73.45
2022-12-17T22:53:03.108Z,72.77
2022-12-17T22:55:32.966Z,72.72
2022-12-17T22:58:01.211Z,72.17
2022-12-17T23:00:32.086Z,72.56
2022-12-17T23:03:00.458Z,71.91
2022-12-17T23:05:29.935Z,72.80
2022-12-17T23:07:57.783Z,73.12
2022-12-17T23:10:28.261Z,72.72
2022-12-17T23:12:55.927Z,72.51
2022-12-17T23:15:27.302Z,72.68
2022-12-17T23:17:57.357Z,72.84
2022-12-17T23:20:26.444Z,73.53
2022-12-17T23:22:53.935Z,72.64
2022-12-17T23:25:22.596Z,73.26
2022-12-17T23:27:52.093Z,73.58
2022-12-17T23:30:21.099Z,72.52
2022-12-17T23:32:48.908Z,72.29
2022-12-17T23:35:16.843Z,73.15
2022-12-17T23:37:44.129Z,72.79
2022-12-17T23:40:12.859Z,73.83
2022-12-17T23:42:40.423Z,72.78
2022-12-17T23:45:10.310Z,73.90
2022-12-17T23:47:38.706Z,72.96
2022-12-17T23:50:08.846Z,72.24
2022-12-17T23:52:37.291Z,73.08
2022-12-17T23:55:05.552Z,72.61
2022-12-17T23:57:35.535Z,72.62
